Latest Weather Observations for The Monument

IDQ60801

Issued at 10:22 pm EST Friday 15 November 2019 (issued every 10 minutes, with the page automatically refreshed every 10 minutes)

About weather observations | Map of weather stations | Latest weather observations for QLD | Other Formats
Station Details ID: 037034 Name: THE MONUMENT AIRPORT Lat: -21.81 Lon: 139.93 Height: 288.4 m
Data from the previous 72 hours. | See also: Recent months at The Monument
Date/Time
EST
Temp
°C
App
Temp
°C
Dew
Point
°C
Rel
Hum
%
Delta-T
°C
Wind Press
QNH
hPa
Press
MSL
hPa
Rain since
9am
mm
Dir  Spd
km/h
Gust
km/h
Spd
kts
Gust
kts
15/10:00pm 23.6 19.0 -7.4 12 12.4 SSW 9 13 5 7 1014.5 1012.5 0.0
15/09:30pm 22.0 17.7 -8.7 12 11.8 S 7 7 4 4 1014.1 1012.1 0.0
15/09:00pm 24.5 20.3 -7.9 11 13.0 SSW 7 9 4 5 1013.8 1011.7 0.0
15/08:30pm 26.5 21.9 -7.6 10 14.0 SSW 9 11 5 6 1013.6 1011.5 0.0
15/08:00pm 27.7 22.7 -8.0 9 14.7 S 11 13 6 7 1013.3 1011.2 0.0
15/07:30pm 28.8 23.9 -7.2 9 15.2 S 11 13 6 7 1012.9 1010.9 0.0
15/07:00pm 30.8 25.5 -7.2 8 16.4 S 13 19 7 10 1012.5 1010.5 0.0
15/06:30pm 32.7 27.4 -7.6 7 17.5 S 13 19 7 10 1012.2 1010.2 0.0
15/06:00pm 33.5 27.5 -7.0 7 17.9 SSE 17 22 9 12 1011.9 1009.9 0.0
15/05:30pm 34.2 28.6 -6.5 7 18.2 SSE 15 22 8 12 1011.6 1009.6 0.0
15/05:00pm 34.5 28.2 -6.3 7 18.4 S 19 30 10 16 1011.3 1009.3 0.0
15/04:30pm 34.1 28.5 -6.5 7 18.2 SSE 15 26 8 14 1011.4 1009.4 0.0
15/04:00pm 34.5 28.9 -6.3 7 18.4 SSE 15 24 8 13 1011.5 1009.5 0.0
15/03:30pm 35.2 30.0 -5.7 7 18.7 SW 13 20 7 11 1011.6 1009.6 0.0
15/03:00pm 34.9 29.3 -6.0 7 18.6 SSW 15 26 8 14 1011.8 1009.8 0.0
15/02:30pm 33.3 28.6 -5.4 8 17.5 SE 11 22 6 12 1012.1 1010.1 0.0
15/02:00pm 34.3 28.9 -4.6 8 18.0 S 15 26 8 14 1012.5 1010.5 0.0
15/01:30pm 32.8 27.3 -5.7 8 17.3 S 15 26 8 14 1012.9 1010.9 0.0
15/01:00pm 32.6 27.0 -5.9 8 17.2 SE 15 28 8 15 1013.4 1011.3 0.0
15/12:30pm 32.0 25.5 -6.3 8 16.9 S 20 32 11 17 1013.9 1011.9 0.0
15/12:00pm 32.6 26.7 -5.9 8 17.2 S 17 28 9 15 1014.3 1012.3 0.0
15/11:30am 31.4 25.5 -5.2 9 16.4 SSE 17 50 9 27 1014.5 1012.5 0.0
15/11:00am 31.5 25.6 -5.2 9 16.4 SSE 17 26 9 14 1014.9 1012.9 0.0
15/10:30am 30.0 23.7 -6.3 9 15.8 SE 19 30 10 16 1015.3 1013.3 0.0
15/10:00am 30.0 23.1 -6.3 9 15.7 SE 22 35 12 19 1015.6 1013.6 0.0
15/09:30am 28.6 22.7 -6.0 10 14.9 SE 17 30 9 16 1015.9 1013.9 0.0
15/09:00am 26.8 20.9 -6.1 11 13.9 SSE 17 26 9 14 1016.0 1014.0 0.0
15/08:30am 25.1 19.1 -6.3 12 13.0 SE 17 24 9 13 1015.8 1013.8 0.0
15/08:00am 24.1 18.9 -6.0 13 12.4 SE 13 19 7 10 1015.6 1013.6 0.0
15/07:30am 21.3 17.1 -7.2 14 11.2 S 7 9 4 5 1015.3 1013.3 0.0
15/07:00am 19.0 16.2 -7.4 16 10.1 CALM 0 0 0 0 1015.0 1013.0 0.0
15/06:30am 15.0 11.8 -7.7 20 8.2 SSW 2 7 1 4 1014.8 1012.8 0.0
15/06:00am 13.2 10.3 -8.6 21 7.6 CALM 0 0 0 0 1014.4 1012.4 0.0
15/05:30am 15.3 11.0 -8.8 18 8.6 SSW 7 9 4 5 1014.1 1012.1 0.0
15/05:00am 16.4 11.0 -8.7 17 9.1 SSW 13 15 7 8 1013.8 1011.7 0.0
15/04:30am 16.9 11.9 -8.3 17 9.2 S 11 13 6 7 1013.7 1011.6 0.0
15/04:00am 17.2 12.1 -8.8 16 9.5 S 11 13 6 7 1013.7 1011.6 0.0
15/03:30am 17.3 12.3 -8.7 16 9.5 SSW 11 13 6 7 1013.7 1011.6 0.0
15/03:00am 17.5 12.8 -8.6 16 9.6 S 9 13 5 7 1013.8 1011.7 0.0
15/02:30am 17.3 12.6 -8.7 16 9.5 SSW 9 11 5 6 1013.9 1011.9 0.0
15/02:00am 17.3 13.1 -9.5 15 9.6 SW 6 7 3 4 1014.0 1012.0 0.0
15/01:30am 16.1 12.6 -11.4 14 9.3 SSW 2 7 1 4 1014.1 1012.1 0.0
15/01:00am 18.7 13.9 -10.2 13 10.4 S 9 11 5 6 1014.3 1012.3 0.0
15/12:30am 19.7 15.0 -9.5 13 10.8 SSW 9 11 5 6 1014.4 1012.4 0.0
15/12:00am 20.3 14.8 -10.0 12 11.2 S 13 13 7 7 1014.6 1012.6 0.0
 
Date/Time
EST
Temp
°C
App
Temp
°C
Dew
Point
°C
Rel
Hum
%
Delta-T
°C
Wind Press
QNH
hPa
Press
MSL
hPa
Rain since
9am
mm
Dir  Spd
km/h
Gust
km/h
Spd
kts
Gust
kts
14/11:30pm 19.8 15.0 -10.4 12 11.0 S 9 11 5 6 1014.8 1012.8 0.0
14/11:00pm 20.8 16.1 -9.6 12 11.3 S 9 13 5 7 1014.9 1012.9 0.0
14/10:30pm 20.7 16.3 -10.8 11 11.5 S 7 11 4 6 1014.8 1012.8 0.0
14/10:00pm 21.8 17.4 -9.9 11 11.9 S 7 11 4 6 1014.7 1012.7 0.0
14/09:30pm 23.4 18.3 -9.9 10 12.7 S 11 15 6 8 1014.3 1012.3 0.0
14/09:00pm 23.9 18.7 -10.9 9 13.1 S 11 13 6 7 1014.0 1012.0 0.0
14/08:30pm 24.7 19.5 -10.3 9 13.4 S 11 13 6 7 1013.9 1011.9 0.0
14/08:00pm 25.7 20.6 -9.5 9 13.9 S 11 13 6 7 1013.6 1011.5 0.0
14/07:30pm 27.4 21.9 -9.7 8 14.8 S 13 15 7 8 1013.2 1011.1 0.0
14/07:00pm 29.1 22.8 -10.2 7 15.8 S 17 26 9 14 1012.9 1010.9 0.0
14/06:30pm 30.8 24.2 -8.9 7 16.6 S 19 30 10 16 1012.6 1010.6 0.0
14/06:00pm 31.8 24.6 -10.2 6 17.3 S 22 32 12 17 1012.4 1010.4 0.0
14/05:30pm 32.2 25.5 -9.9 6 17.5 SSE 19 30 10 16 1012.3 1010.3 0.0
14/05:00pm 32.4 25.6 -9.7 6 17.6 SSE 20 30 11 16 1012.3 1010.3 0.0
14/04:30pm 33.0 25.4 -9.3 6 17.9 S 24 32 13 17 1012.6 1010.6 0.0
14/04:00pm 33.7 26.9 -8.8 6 18.2 SSE 20 35 11 19 1012.9 1010.9 0.0
14/03:30pm 32.9 26.1 -9.4 6 17.9 S 20 33 11 18 1013.4 1011.3 0.0
14/03:00pm 33.4 25.9 -9.0 6 18.1 S 24 33 13 18 1013.8 1011.7 0.0
14/02:30pm 32.8 26.0 -9.4 6 17.8 SSE 20 30 11 16 1014.1 1012.1 0.0
14/02:00pm 32.7 26.5 -9.5 6 17.7 SSE 17 26 9 14 1014.6 1012.6 0.0
14/01:30pm 31.9 25.2 -8.1 7 17.1 SSE 20 28 11 15 1015.2 1013.2 0.0
14/01:00pm 32.2 25.1 -7.9 7 17.2 SSE 22 35 12 19 1015.8 1013.8 0.0
14/12:30pm 32.0 25.3 -8.1 7 17.2 SE 20 35 11 19 1016.3 1014.3 0.0
14/12:00pm 31.1 24.3 -8.7 7 16.7 SE 20 37 11 20 1016.8 1014.7 0.0
14/11:30am 29.7 23.0 -8.0 8 15.8 SSE 20 30 11 16 1017.3 1015.3 0.0
14/11:00am 29.8 23.3 -6.4 9 15.6 ESE 20 35 11 19 1017.7 1015.7 0.0
14/10:30am 28.7 21.3 -7.3 9 15.2 SE 24 37 13 20 1017.9 1015.9 0.0
14/10:00am 28.1 20.3 -7.7 9 14.9 SE 26 35 14 19 1018.3 1016.3 0.0
14/09:30am 27.2 19.1 -7.0 10 14.3 SE 28 37 15 20 1018.4 1016.4 0.0
14/09:00am 25.6 17.5 -7.0 11 13.4 SE 28 37 15 20 1018.3 1016.3 0.0
14/08:30am 24.2 16.1 -7.0 12 12.7 SE 28 43 15 23 1018.2 1016.2 0.0
14/08:00am 22.4 15.3 -8.4 12 11.9 SSE 22 33 12 18 1018.1 1016.1 0.0
14/07:30am 20.8 14.1 -8.6 13 11.2 SSE 20 30 11 16 1017.9 1015.9 0.0
14/07:00am 19.3 13.2 -7.9 15 10.3 SSE 17 22 9 12 1017.6 1015.6 0.0
14/06:30am 17.4 12.0 -7.9 17 9.4 S 13 17 7 9 1017.5 1015.5 0.0
14/06:00am 16.4 11.0 -7.9 18 8.9 S 13 15 7 8 1017.1 1015.1 0.0
14/05:30am 17.2 11.5 -8.0 17 9.3 S 15 19 8 10 1016.6 1014.6 0.0
14/05:00am 18.1 12.0 -8.1 16 9.8 S 17 20 9 11 1016.4 1014.4 0.0
14/04:30am 18.7 12.5 -8.4 15 10.1 S 17 20 9 11 1016.3 1014.3 0.0
14/04:00am 19.3 13.2 -7.9 15 10.3 SSE 17 22 9 12 1016.1 1014.1 0.0
14/03:30am 19.9 13.4 -8.4 14 10.7 S 19 26 10 14 1015.9 1013.9 0.0
14/03:00am 20.4 13.6 -8.9 13 11.0 S 20 26 11 14 1015.8 1013.8 0.0
14/02:30am 20.5 14.3 -8.8 13 11.1 S 17 24 9 13 1015.7 1013.7 0.0
14/02:00am 21.2 15.0 -9.3 12 11.5 S 17 22 9 12 1015.8 1013.8 0.0
14/01:30am 21.9 15.3 -8.7 12 11.8 S 19 28 10 15 1015.9 1013.9 0.0
14/01:00am 22.4 16.2 -8.4 12 12.0 S 17 22 9 12 1016.4 1014.4 0.0
14/12:30am 23.0 17.2 -9.0 11 12.4 S 15 20 8 11 1016.5 1014.5 0.0
14/12:00am 23.9 17.8 -8.3 11 12.7 S 17 24 9 13 1016.9 1014.8 0.0
 
Date/Time
EST
Temp
°C
App
Temp
°C
Dew
Point
°C
Rel
Hum
%
Delta-T
°C
Wind Press
QNH
hPa
Press
MSL
hPa
Rain since
9am
mm
Dir  Spd
km/h
Gust
km/h
Spd
kts
Gust
kts
13/11:30pm 24.7 18.1 -8.9 10 13.2 S 19 24 10 13 1016.9 1014.8 0.0
13/11:00pm 25.4 18.9 -8.4 10 13.5 S 19 28 10 15 1017.0 1015.0 0.0
13/10:30pm 26.1 19.0 -7.9 10 13.8 S 22 32 12 17 1016.8 1014.7 0.0
13/10:00pm 26.7 20.1 -7.4 10 14.1 S 20 28 11 15 1016.5 1014.5 0.0
13/09:30pm 27.6 20.6 -6.7 10 14.5 S 22 30 12 16 1016.2 1014.2 0.0
13/09:00pm 27.9 21.5 -5.2 11 14.4 S 20 28 11 15 1015.9 1013.9 0.0
13/08:30pm 28.7 22.5 -3.5 12 14.5 S 20 32 11 17 1015.4 1013.4 0.0
13/08:00pm 29.6 22.7 -2.8 12 14.9 S 24 39 13 21 1014.9 1012.9 0.0
13/07:30pm 30.4 23.0 -3.3 11 15.5 S 26 37 14 20 1014.5 1012.5 0.0
13/07:00pm 31.3 23.3 -2.6 11 15.8 S 30 43 16 23 1014.0 1012.0 0.0
13/06:30pm 32.4 25.2 -1.8 11 16.3 S 26 37 14 20 1013.6 1011.5 0.0
13/06:00pm 33.4 26.7 -1.0 11 16.8 S 24 37 13 20 1013.3 1011.2 0.0
13/05:30pm 34.0 26.1 -1.9 10 17.3 S 30 41 16 22 1013.1 1011.0 0.0
13/05:00pm 34.7 28.0 -1.4 10 17.6 S 24 37 13 20 1012.9 1010.9 0.0
13/04:30pm 35.6 29.0 -0.7 10 18.0 SSW 24 39 13 21 1012.8 1010.8 0.0
13/04:00pm 35.7 28.7 -0.6 10 18.1 S 26 35 14 19 1012.8 1010.8 0.0
13/03:30pm 36.1 29.1 -0.3 10 18.2 S 26 39 14 21 1012.9 1010.9 0.0
13/03:00pm 36.2 29.4 -1.7 9 18.6 SSW 24 35 13 19 1013.4 1011.3 0.0
13/02:30pm 36.3 30.1 -0.2 10 18.3 SSW 22 35 12 19 1013.7 1011.6 0.0
13/02:00pm 34.8 29.0 0.0 11 17.4 SSE 20 30 11 16 1014.2 1012.2 0.0
13/01:30pm 34.4 28.6 -0.3 11 17.2 S 20 32 11 17 1014.5 1012.5 0.0
13/01:00pm 34.1 29.0 0.7 12 16.8 S 17 28 9 15 1015.0 1013.0 0.0
13/12:30pm 33.8 27.7 0.5 12 16.7 S 22 32 12 17 1015.6 1013.6 0.0
13/12:00pm 33.2 27.2 1.1 13 16.1 SSE 22 32 12 17 1016.0 1014.0 0.0
13/11:30am 32.2 25.7 0.3 13 15.7 SSE 24 37 13 20 1016.6 1014.6 0.0
13/11:00am 30.9 24.8 0.3 14 15.0 SSE 22 33 12 18 1017.1 1015.1 0.0
13/10:30am 30.4 23.8 -0.1 14 14.8 SE 24 33 13 18 1017.4 1015.4 0.0
13/10:00am 29.5 22.6 0.2 15 14.2 SSE 26 39 14 21 1017.5 1015.5 0.0
13/09:30am 28.8 21.6 0.5 16 13.7 SSE 28 35 15 19 1017.4 1015.4 0.0
13/09:00am 27.8 21.1 1.3 18 12.9 S 26 37 14 20 1017.5 1015.5 0.0
13/08:30am 26.0 19.2 0.6 19 12.1 S 26 35 14 19 1017.6 1015.6 0.0
13/08:00am 25.1 18.9 -0.1 19 11.7 S 22 32 12 17 1017.4 1015.4 0.0
13/07:30am 24.1 18.3 -0.2 20 11.2 S 20 30 11 16 1017.1 1015.1 0.0
13/07:00am 22.7 17.4 -0.7 21 10.6 SSW 17 24 9 13 1016.8 1014.7 0.0
13/06:30am 21.9 17.0 -0.8 22 10.2 SSW 15 20 8 11 1016.3 1014.3 0.0
13/06:00am 21.3 16.7 -1.3 22 10.0 S 13 19 7 10 1015.8 1013.8 0.0
13/05:30am 22.0 16.6 -1.3 21 10.4 S 17 20 9 11 1015.2 1013.2 0.0
13/05:00am 22.0 17.0 -1.3 21 10.4 S 15 19 8 10 1014.9 1012.9 0.0
13/04:30am 22.2 17.6 -1.1 21 10.4 S 13 19 7 10 1014.7 1012.7 0.0
13/04:00am 21.7 17.5 -0.9 22 10.1 S 11 15 6 8 1014.3 1012.3 0.0
13/03:30am 21.8 17.8 -2.1 20 10.4 SSW 9 11 5 6 1014.0 1012.0 0.0
13/03:00am 22.5 18.5 -2.2 19 10.8 S 9 17 5 9 1013.8 1011.7 0.0
13/02:30am 22.6 18.0 -3.7 17 11.2 S 11 15 6 8 1013.7 1011.6 0.0
13/02:00am 23.1 18.3 -5.8 14 11.9 S 11 15 6 8 1013.7 1011.6 0.0
13/01:30am 24.6 19.5 -5.6 13 12.7 S 13 19 7 10 1013.8 1011.7 0.0
13/01:00am 26.3 19.7 -6.5 11 13.7 SSE 20 30 11 16 1013.7 1011.6 0.0
13/12:30am 26.8 20.2 -8.7 9 14.3 S 19 28 10 15 1013.8 1011.7 0.0
13/12:00am 22.0 17.1 -12.3 9 12.3 SSW 9 11 5 6 1013.7 1011.6 0.0
 
Date/Time
EST
Temp
°C
App
Temp
°C
Dew
Point
°C
Rel
Hum
%
Delta-T
°C
Wind Press
QNH
hPa
Press
MSL
hPa
Rain since
9am
mm
Dir  Spd
km/h
Gust
km/h
Spd
kts
Gust
kts
12/11:30pm 22.1 17.7 -10.9 10 12.2 S 7 9 4 5 1013.6 1011.5 0.0
12/11:00pm 20.7 16.4 -10.8 11 11.5 S 6 7 3 4 1013.6 1011.5 0.0
12/10:30pm 21.6 17.3 -11.3 10 12.0 SSW 6 6 3 3 1013.6 1011.5 0.0

Other formats

Comma delimited format used in spreadsheet applications
http://www.bom.gov.au/fwo/IDQ60801/IDQ60801.94336.axf

JavaScript Object Notation format (JSON) in row-major order
http://www.bom.gov.au/fwo/IDQ60801/IDQ60801.94336.json

Data quality

Most of these data are generated automatically and are frequently updated. Quality checks on data are not normally performed. It is possible for incorrect values to appear. Refer to information at About Latest Weather Observations and please check the disclaimer before using these data.